createdAt,value
2018-06-09T00:02:28.789Z,93.00
2018-06-09T00:05:01.678Z,93.00
2018-06-09T00:07:34.702Z,93.10
2018-06-09T00:10:08.675Z,93.00
2018-06-09T00:12:41.986Z,93.00
2018-06-09T00:15:15.209Z,93.20
2018-06-09T00:17:48.961Z,93.30
2018-06-09T00:20:21.916Z,93.30
2018-06-09T00:22:55.545Z,93.20
2018-06-09T00:25:36.518Z,93.50
2018-06-09T00:28:10.497Z,93.40
2018-06-09T00:30:45.357Z,93.00
2018-06-09T00:33:23.845Z,93.10
2018-06-09T00:38:50.755Z,92.90
2018-06-09T00:41:24.821Z,92.80
2018-06-09T00:43:58.308Z,93.10
2018-06-09T00:46:32.093Z,93.20
2018-06-09T00:49:05.758Z,93.10
2018-06-09T00:51:38.664Z,93.10
2018-06-09T00:54:14.975Z,93.20
2018-06-09T00:56:49.103Z,93.40
2018-06-09T00:59:22.272Z,93.20
2018-06-09T01:01:55.825Z,93.50
2018-06-09T01:04:28.233Z,94.00
2018-06-09T01:07:09.170Z,94.10
2018-06-09T01:09:43.058Z,94.40
2018-06-09T01:12:24.054Z,94.80
2018-06-09T01:14:56.676Z,95.10
2018-06-09T01:17:30.087Z,95.00
2018-06-09T01:20:03.695Z,95.00
2018-06-09T01:22:46.538Z,95.20
2018-06-09T01:25:21.433Z,95.30
2018-06-09T01:28:00.422Z,95.50
2018-06-09T01:30:34.173Z,95.60
2018-06-09T01:33:06.625Z,95.80
2018-06-09T01:35:39.896Z,95.90
2018-06-09T01:38:17.512Z,96.10
2018-06-09T01:40:54.071Z,96.00
2018-06-09T01:43:27.896Z,96.10
2018-06-09T01:46:00.906Z,96.00
2018-06-09T01:48:33.722Z,95.80
2018-06-09T01:51:06.760Z,95.80
2018-06-09T01:53:41.284Z,95.60
2018-06-09T01:56:13.691Z,95.90
2018-06-09T01:58:46.162Z,95.80
2018-06-09T02:01:18.492Z,95.80
2018-06-09T02:03:53.825Z,96.10
2018-06-09T02:06:28.908Z,96.30
2018-06-09T02:11:34.035Z,96.70
2018-06-09T02:14:06.794Z,97.20
2018-06-09T02:16:39.942Z,97.40
2018-06-09T02:19:13.981Z,97.90
2018-06-09T02:21:47.263Z,97.90
2018-06-09T02:24:20.821Z,98.00
2018-06-09T02:26:54.393Z,98.40
2018-06-09T02:29:27.822Z,98.40
2018-06-09T02:32:00.216Z,98.40
2018-06-09T02:34:33.109Z,98.80
2018-06-09T02:37:06.395Z,98.90
2018-06-09T02:39:39.180Z,98.80
2018-06-09T02:42:12.078Z,98.70
2018-06-09T02:44:44.150Z,98.80
2018-06-09T02:47:17.123Z,99.10
2018-06-09T02:49:51.526Z,98.80
2018-06-09T02:52:25.745Z,99.10
2018-06-09T02:55:00.607Z,99.10
2018-06-09T02:57:34.019Z,99.20
2018-06-09T03:00:11.440Z,99.50
2018-06-09T03:02:44.100Z,99.20
2018-06-09T03:05:18.978Z,99.30
2018-06-09T03:07:52.850Z,99.40
2018-06-09T03:10:32.182Z,99.50
2018-06-09T03:13:04.655Z,99.70
2018-06-09T03:15:37.771Z,99.80
2018-06-09T03:18:13.274Z,99.80
2018-06-09T03:20:46.620Z,99.90
2018-06-09T03:23:20.158Z,99.90
2018-06-09T03:25:51.727Z,99.40
2018-06-09T03:28:25.577Z,99.20
2018-06-09T03:30:59.938Z,99.20
2018-06-09T03:33:37.912Z,99.60
2018-06-09T03:36:12.353Z,99.80
2018-06-09T03:38:44.897Z,99.60
2018-06-09T03:41:17.540Z,99.70
2018-06-09T03:43:50.715Z,99.30
2018-06-09T03:46:23.352Z,99.30
2018-06-09T03:48:56.389Z,98.90
2018-06-09T03:51:31.968Z,98.80
2018-06-09T03:54:04.171Z,98.80
2018-06-09T03:56:43.678Z,98.70
2018-06-09T03:59:24.568Z,98.80
2018-06-09T04:01:58.634Z,98.60
2018-06-09T04:04:33.201Z,98.50
2018-06-09T04:07:05.480Z,98.10
2018-06-09T04:09:41.929Z,98.30
2018-06-09T04:12:16.744Z,98.20
2018-06-09T04:14:50.291Z,97.80
2018-06-09T04:17:23.769Z,97.40
2018-06-09T04:19:57.411Z,97.50
2018-06-09T04:22:30.902Z,96.80
2018-06-09T04:25:03.694Z,96.30
2018-06-09T04:27:37.529Z,96.10
2018-06-09T04:30:11.220Z,95.40
2018-06-09T04:32:51.098Z,94.80
2018-06-09T04:35:28.109Z,94.70
2018-06-09T04:38:02.186Z,94.20
2018-06-09T04:40:35.244Z,93.60
2018-06-09T04:43:09.375Z,93.40
2018-06-09T04:45:43.048Z,93.30
2018-06-09T04:48:20.693Z,93.00
2018-06-09T04:50:52.284Z,92.60
2018-06-09T04:53:25.344Z,92.20
2018-06-09T04:55:57.830Z,92.00
2018-06-09T04:58:32.073Z,91.60
2018-06-09T05:01:06.618Z,91.50
2018-06-09T05:03:40.351Z,91.20
2018-06-09T05:06:13.137Z,91.10
2018-06-09T05:08:45.194Z,90.00
2018-06-09T05:11:19.151Z,89.80
2018-06-09T05:13:54.145Z,89.20
2018-06-09T05:16:31.110Z,89.10
2018-06-09T05:19:13.593Z,88.30
2018-06-09T05:24:58.072Z,87.20
2018-06-09T05:27:31.316Z,87.40
2018-06-09T05:30:05.099Z,87.20
2018-06-09T05:32:38.563Z,87.20
2018-06-09T05:35:13.020Z,86.10
2018-06-09T05:37:45.632Z,85.00
2018-06-09T05:40:24.363Z,84.90
2018-06-09T05:42:58.146Z,84.40
2018-06-09T05:45:30.523Z,84.90
2018-06-09T05:48:03.714Z,84.50
2018-06-09T05:50:37.608Z,84.40
2018-06-09T05:53:21.272Z,84.20
2018-06-09T05:56:02.750Z,84.00
2018-06-09T05:58:43.546Z,84.30
2018-06-09T06:01:17.770Z,83.30
2018-06-09T06:03:55.699Z,83.70
2018-06-09T06:06:33.819Z,83.40
2018-06-09T06:09:08.785Z,82.80
2018-06-09T06:11:42.711Z,83.00
2018-06-09T06:14:16.085Z,82.30
2018-06-09T06:16:49.901Z,81.70
2018-06-09T06:19:25.440Z,81.30
2018-06-09T06:21:58.743Z,80.60
2018-06-09T06:24:36.736Z,80.60
2018-06-09T06:27:10.699Z,80.10
2018-06-09T06:29:46.820Z,80.30
2018-06-09T06:32:21.135Z,79.60
2018-06-09T06:37:27.578Z,79.00
2018-06-09T06:40:01.812Z,78.60
2018-06-09T06:42:33.697Z,78.30
2018-06-09T06:45:07.841Z,77.70
2018-06-09T06:47:46.926Z,78.30
2018-06-09T06:50:22.174Z,77.20
2018-06-09T06:52:56.611Z,76.60
2018-06-09T06:55:29.723Z,76.30
2018-06-09T06:58:12.274Z,76.50
2018-06-09T07:00:46.198Z,75.70
2018-06-09T07:03:18.853Z,75.40
2018-06-09T07:05:52.414Z,74.80
2018-06-09T07:08:24.580Z,74.90
2018-06-09T07:10:56.174Z,75.20
2018-06-09T07:14:34.934Z,75.70
2018-06-09T07:17:06.140Z,75.50
2018-06-09T07:19:37.016Z,76.60
2018-06-09T07:22:07.766Z,76.40
2018-06-09T07:24:38.313Z,75.70
2018-06-09T07:27:09.479Z,74.50
2018-06-09T07:29:41.541Z,75.10
2018-06-09T07:32:13.719Z,75.00
2018-06-09T07:34:50.765Z,75.40
2018-06-09T07:37:22.832Z,76.00
2018-06-09T07:39:54.658Z,75.30
2018-06-09T07:42:26.224Z,75.40
2018-06-09T07:45:01.968Z,74.90
2018-06-09T07:47:40.824Z,75.40
2018-06-09T07:50:14.060Z,75.70
2018-06-09T07:52:48.195Z,75.00
2018-06-09T07:55:21.278Z,75.30
2018-06-09T07:57:54.736Z,75.70
2018-06-09T08:00:28.386Z,75.20
2018-06-09T08:03:01.233Z,74.00
2018-06-09T08:05:33.635Z,73.90
2018-06-09T08:08:06.407Z,74.20
2018-06-09T08:10:38.724Z,73.80
2018-06-09T08:13:12.819Z,73.80
2018-06-09T08:15:50.472Z,74.10
2018-06-09T08:18:21.060Z,73.70
2018-06-09T08:20:53.666Z,74.10
2018-06-09T08:23:25.589Z,73.40
2018-06-09T08:25:59.700Z,73.10
2018-06-09T08:28:33.976Z,72.90
2018-06-09T08:31:05.031Z,73.40
2018-06-09T08:33:35.795Z,73.80
2018-06-09T08:36:07.683Z,73.90
2018-06-09T08:38:38.751Z,73.70
2018-06-09T08:41:09.768Z,73.30
2018-06-09T08:43:40.936Z,73.10
2018-06-09T08:46:12.779Z,73.20
2018-06-09T08:48:43.862Z,73.40
2018-06-09T08:51:14.869Z,73.00
2018-06-09T08:53:45.810Z,72.70
2018-06-09T08:56:16.532Z,73.10
2018-06-09T08:58:47.348Z,73.50
2018-06-09T09:01:18.230Z,73.40
2018-06-09T09:03:49.539Z,72.70
2018-06-09T09:06:20.341Z,72.90
2018-06-09T09:08:51.648Z,73.10
2018-06-09T09:11:22.087Z,72.70
2018-06-09T09:13:54.865Z,71.70
2018-06-09T09:16:26.524Z,71.70
2018-06-09T09:19:14.627Z,71.70
2018-06-09T09:21:48.787Z,71.60
2018-06-09T09:24:19.662Z,70.70
2018-06-09T09:26:50.650Z,70.70
2018-06-09T09:29:22.640Z,69.00
2018-06-09T09:31:54.153Z,66.70
2018-06-09T09:34:27.277Z,66.60
2018-06-09T09:36:57.885Z,66.30
2018-06-09T09:39:28.231Z,64.50
2018-06-09T09:41:59.732Z,63.70
2018-06-09T09:44:30.566Z,62.70
2018-06-09T09:47:00.624Z,62.90
2018-06-09T09:49:31.903Z,63.20
2018-06-09T09:52:03.791Z,63.00
2018-06-09T09:54:34.292Z,63.40
2018-06-09T09:57:04.772Z,63.90
2018-06-09T09:59:35.376Z,64.40
2018-06-09T10:02:08.716Z,64.40
2018-06-09T10:04:40.664Z,64.00
2018-06-09T10:07:11.740Z,63.70
2018-06-09T10:09:42.553Z,64.60
2018-06-09T10:12:13.364Z,63.20
2018-06-09T10:14:44.336Z,62.30
2018-06-09T10:17:15.217Z,62.10
2018-06-09T10:19:45.796Z,62.60
2018-06-09T10:22:16.955Z,63.20
2018-06-09T10:24:47.570Z,63.30
2018-06-09T10:27:27.476Z,63.90
2018-06-09T10:29:58.750Z,64.30
2018-06-09T10:32:29.072Z,63.20
2018-06-09T10:34:59.324Z,63.00
2018-06-09T10:37:29.659Z,61.90
2018-06-09T10:40:02.134Z,61.70
2018-06-09T10:42:33.101Z,60.80
2018-06-09T10:45:03.985Z,59.90
2018-06-09T10:47:39.076Z,60.60
2018-06-09T10:50:09.368Z,61.60
2018-06-09T10:52:39.908Z,61.60
2018-06-09T10:55:11.380Z,62.70
2018-06-09T10:57:42.105Z,63.10
2018-06-09T11:00:12.886Z,62.20
2018-06-09T11:02:44.194Z,60.30
2018-06-09T11:08:18.291Z,58.90
2018-06-09T11:10:49.278Z,58.50
2018-06-09T11:13:22.491Z,58.70
2018-06-09T11:15:53.080Z,58.60
2018-06-09T11:18:23.303Z,58.50
2018-06-09T11:20:54.393Z,57.90
2018-06-09T11:23:24.245Z,57.40
2018-06-09T11:25:55.855Z,57.10
2018-06-09T11:28:25.335Z,57.80
2018-06-09T11:31:01.282Z,57.40
2018-06-09T11:33:31.910Z,56.20
2018-06-09T11:36:05.065Z,57.10
2018-06-09T11:38:36.707Z,56.30
2018-06-09T11:41:08.000Z,56.60
2018-06-09T11:43:40.286Z,55.20
2018-06-09T11:46:11.016Z,55.90
2018-06-09T11:48:42.029Z,56.70
2018-06-09T11:51:11.941Z,57.10
2018-06-09T11:53:43.773Z,56.60
2018-06-09T11:56:13.645Z,56.20
2018-06-09T11:58:45.863Z,55.90
2018-06-09T12:01:17.666Z,55.40
2018-06-09T12:03:47.005Z,55.00
2018-06-09T12:06:18.568Z,53.80
2018-06-09T12:08:48.930Z,54.30
2018-06-09T12:11:18.996Z,53.40
2018-06-09T12:13:49.406Z,55.80
2018-06-09T12:16:20.775Z,55.40
2018-06-09T12:18:54.997Z,55.50
2018-06-09T12:21:26.506Z,55.70
2018-06-09T12:23:56.925Z,55.90
2018-06-09T12:26:27.334Z,56.70
2018-06-09T12:28:58.265Z,55.30
2018-06-09T12:33:59.459Z,54.60
2018-06-09T12:36:29.247Z,54.30
2018-06-09T12:39:00.895Z,54.20
2018-06-09T12:41:31.141Z,54.30
2018-06-09T12:44:02.289Z,52.90
2018-06-09T12:46:32.764Z,53.80
2018-06-09T12:49:04.419Z,53.20
2018-06-09T12:51:34.684Z,52.80
2018-06-09T12:54:10.381Z,53.60
2018-06-09T12:56:41.646Z,53.50
2018-06-09T12:59:12.577Z,53.20
2018-06-09T13:01:43.422Z,53.00
2018-06-09T13:04:15.072Z,52.70
2018-06-09T13:06:44.636Z,53.40
2018-06-09T13:09:19.165Z,53.50
2018-06-09T13:11:50.456Z,53.90
2018-06-09T13:14:22.020Z,53.80
2018-06-09T13:16:52.747Z,53.80
2018-06-09T13:19:23.103Z,53.50
2018-06-09T13:21:55.692Z,53.70
2018-06-09T13:24:27.083Z,52.60
2018-06-09T13:26:56.898Z,53.70
2018-06-09T13:29:27.180Z,53.70
2018-06-09T13:31:58.164Z,53.20
2018-06-09T13:34:28.935Z,53.90
2018-06-09T13:36:59.274Z,54.70
2018-06-09T13:42:01.681Z,55.00
2018-06-09T13:44:34.069Z,55.00
2018-06-09T13:47:05.509Z,53.70
2018-06-09T13:49:35.853Z,53.70
2018-06-09T13:52:06.199Z,54.20
2018-06-09T13:54:36.459Z,54.30
2018-06-09T13:57:07.057Z,53.40
2018-06-09T13:59:37.016Z,53.30
2018-06-09T14:02:08.510Z,53.30
2018-06-09T14:04:42.396Z,53.20
2018-06-09T14:07:12.758Z,54.10
2018-06-09T14:09:45.333Z,52.60
2018-06-09T14:12:16.039Z,52.50
2018-06-09T14:14:52.153Z,53.30
2018-06-09T14:17:24.679Z,53.20
2018-06-09T14:20:00.324Z,52.90
2018-06-09T14:22:29.910Z,52.90
2018-06-09T14:24:59.640Z,53.40
2018-06-09T14:27:29.848Z,53.50
2018-06-09T14:30:00.820Z,53.30
2018-06-09T14:35:00.857Z,53.20
2018-06-09T14:37:32.277Z,53.50
2018-06-09T14:40:02.835Z,54.40
2018-06-09T14:42:33.199Z,54.90
2018-06-09T14:45:03.805Z,54.90
2018-06-09T14:47:35.077Z,55.30
2018-06-09T14:50:05.907Z,56.20
2018-06-09T14:52:37.022Z,55.10
2018-06-09T14:55:08.843Z,55.20
2018-06-09T14:57:39.359Z,55.00
2018-06-09T15:00:10.793Z,55.00
2018-06-09T15:02:46.372Z,55.20
2018-06-09T15:05:17.304Z,55.30
2018-06-09T15:07:48.062Z,54.30
2018-06-09T15:10:18.882Z,54.20
2018-06-09T15:12:48.587Z,54.40
2018-06-09T15:15:19.605Z,53.70
2018-06-09T15:17:50.456Z,54.20
2018-06-09T15:20:23.523Z,54.20
2018-06-09T15:22:53.732Z,54.40
2018-06-09T15:25:24.080Z,54.30
2018-06-09T15:27:55.188Z,53.80
2018-06-09T15:30:26.204Z,53.90
2018-06-09T15:32:56.541Z,54.10
2018-06-09T15:35:26.891Z,54.70
2018-06-09T15:37:57.202Z,54.90
2018-06-09T15:40:28.251Z,55.30
2018-06-09T15:42:58.443Z,55.40
2018-06-09T15:45:49.491Z,55.20
2018-06-09T15:48:20.560Z,55.20
2018-06-09T15:50:51.189Z,55.30
2018-06-09T15:53:22.841Z,55.30
2018-06-09T15:55:55.012Z,56.60
2018-06-09T15:58:28.326Z,57.00
2018-06-09T16:00:59.823Z,56.90
2018-06-09T16:03:30.392Z,57.50
2018-06-09T16:06:04.956Z,57.40
2018-06-09T16:08:35.632Z,57.40
2018-06-09T16:11:06.635Z,58.00
2018-06-09T16:13:37.705Z,57.20
2018-06-09T16:18:38.773Z,57.90
2018-06-09T16:21:08.450Z,58.20
2018-06-09T16:23:39.530Z,58.50
2018-06-09T16:26:10.150Z,58.60
2018-06-09T16:28:40.470Z,58.50
2018-06-09T16:31:13.462Z,58.00
2018-06-09T16:33:43.572Z,58.00
2018-06-09T16:36:14.065Z,58.00
2018-06-09T16:38:44.219Z,58.50
2018-06-09T16:41:17.031Z,58.90
2018-06-09T16:43:46.959Z,59.20
2018-06-09T16:46:17.269Z,59.20
2018-06-09T16:48:47.569Z,58.50
2018-06-09T16:51:17.482Z,58.30
2018-06-09T16:53:48.190Z,58.20
2018-06-09T16:56:18.288Z,58.70
2018-06-09T16:58:48.669Z,59.30
2018-06-09T17:01:20.479Z,60.30
2018-06-09T17:03:50.383Z,60.00
2018-06-09T17:06:20.985Z,60.10
2018-06-09T17:09:00.175Z,60.40
2018-06-09T17:11:31.300Z,61.60
2018-06-09T17:14:09.813Z,62.60
2018-06-09T17:16:42.133Z,62.60
2018-06-09T17:19:13.566Z,62.40
2018-06-09T17:21:43.795Z,62.70
2018-06-09T17:24:15.183Z,62.30
2018-06-09T17:26:46.113Z,62.40
2018-06-09T17:29:16.740Z,63.10
2018-06-09T17:31:47.380Z,63.70
2018-06-09T17:34:19.098Z,64.30
2018-06-09T17:36:49.771Z,64.90
2018-06-09T17:39:30.000Z,66.00
2018-06-09T17:42:00.455Z,67.00
2018-06-09T17:44:31.376Z,67.40
2018-06-09T17:47:02.883Z,67.00
2018-06-09T17:49:35.312Z,67.50
2018-06-09T17:52:06.241Z,68.10
2018-06-09T17:54:40.300Z,68.60
2018-06-09T17:57:10.340Z,69.20
2018-06-09T17:59:40.501Z,69.30
2018-06-09T18:02:11.059Z,68.80
2018-06-09T18:04:42.811Z,68.20
2018-06-09T18:07:13.376Z,67.90
2018-06-09T18:09:45.508Z,67.90
2018-06-09T18:12:16.519Z,68.50
2018-06-09T18:14:46.846Z,68.70
2018-06-09T18:17:16.989Z,69.90
2018-06-09T18:19:47.025Z,70.30
2018-06-09T18:22:16.992Z,70.90
2018-06-09T18:24:47.231Z,70.90
2018-06-09T18:27:20.040Z,71.10
2018-06-09T18:29:51.317Z,71.30
2018-06-09T18:34:52.874Z,71.70
2018-06-09T18:37:25.567Z,72.10
2018-06-09T18:39:55.516Z,72.10
2018-06-09T18:42:37.555Z,72.60
2018-06-09T18:45:09.489Z,73.00
2018-06-09T18:47:39.998Z,73.30
2018-06-09T18:50:11.036Z,73.50
2018-06-09T18:52:41.524Z,73.80
2018-06-09T18:55:12.374Z,73.50
2018-06-09T19:00:18.762Z,73.80
2018-06-09T19:02:49.515Z,73.90
2018-06-09T19:05:20.107Z,74.00
2018-06-09T19:07:50.253Z,74.30
2018-06-09T19:10:21.144Z,74.30
2018-06-09T19:12:51.484Z,74.10
2018-06-09T19:15:29.477Z,74.60
2018-06-09T19:17:59.907Z,74.60
2018-06-09T19:20:31.468Z,74.90
2018-06-09T19:23:02.848Z,75.10
2018-06-09T19:25:36.873Z,75.20
2018-06-09T19:28:07.303Z,75.40
2018-06-09T19:30:37.847Z,75.30
2018-06-09T19:33:08.633Z,75.40
2018-06-09T19:35:39.479Z,75.60
2018-06-09T19:38:14.148Z,75.90
2018-06-09T19:40:46.446Z,76.30
2018-06-09T19:43:18.459Z,76.40
2018-06-09T19:45:50.638Z,76.70
2018-06-09T19:50:56.107Z,77.10
2018-06-09T19:53:28.787Z,77.60
2018-06-09T19:58:55.575Z,77.80
2018-06-09T20:01:27.915Z,78.10
2018-06-09T20:06:31.236Z,78.50
2018-06-09T20:09:02.618Z,78.80
2018-06-09T20:11:34.439Z,78.90
2018-06-09T20:14:05.929Z,79.20
2018-06-09T20:16:38.692Z,79.40
2018-06-09T20:19:11.213Z,79.50
2018-06-09T20:21:42.077Z,79.60
2018-06-09T20:24:14.965Z,79.70
2018-06-09T20:26:49.079Z,79.80
2018-06-09T20:29:20.629Z,79.90
2018-06-09T20:31:56.241Z,79.80
2018-06-09T20:34:28.417Z,79.70
2018-06-09T20:36:59.040Z,79.60
2018-06-09T20:39:35.266Z,79.60
2018-06-09T20:42:06.380Z,79.70
2018-06-09T20:44:42.092Z,79.60
2018-06-09T20:47:14.708Z,79.80
2018-06-09T20:49:51.916Z,79.80
2018-06-09T20:52:24.141Z,80.10
2018-06-09T20:55:00.924Z,80.30
2018-06-09T20:57:34.178Z,80.40
2018-06-09T21:00:06.618Z,80.50
2018-06-09T21:02:39.461Z,80.50
2018-06-09T21:05:11.063Z,80.90
2018-06-09T21:07:42.639Z,80.90
2018-06-09T21:10:16.850Z,81.10
2018-06-09T21:12:48.326Z,81.10
2018-06-09T21:15:19.656Z,81.10
2018-06-09T21:17:51.326Z,81.20
2018-06-09T21:20:27.956Z,81.30
2018-06-09T21:22:59.558Z,81.20
2018-06-09T21:25:30.750Z,81.60
2018-06-09T21:28:07.274Z,81.60
2018-06-09T21:30:44.433Z,81.70
2018-06-09T21:34:34.188Z,81.80
2018-06-09T21:37:15.751Z,82.00
2018-06-09T21:39:56.895Z,82.30
2018-06-09T21:42:36.874Z,82.60
2018-06-09T21:45:16.796Z,82.70
2018-06-09T21:50:25.805Z,82.80
2018-06-09T21:52:58.650Z,82.90
2018-06-09T21:55:31.584Z,83.00
2018-06-09T21:58:03.896Z,83.10
2018-06-09T22:00:36.043Z,83.20
2018-06-09T22:03:08.195Z,83.30
2018-06-09T22:05:40.707Z,83.40
2018-06-09T22:08:13.797Z,83.40
2018-06-09T22:10:46.800Z,83.80
2018-06-09T22:13:21.201Z,83.80
2018-06-09T22:15:56.571Z,84.00
2018-06-09T22:18:29.661Z,84.10
2018-06-09T22:21:03.309Z,84.10
2018-06-09T22:23:39.987Z,84.20
2018-06-09T22:26:15.255Z,84.20
2018-06-09T22:28:48.188Z,84.30
2018-06-09T22:31:20.106Z,84.50
2018-06-09T22:33:52.956Z,84.50
2018-06-09T22:36:25.462Z,85.10
2018-06-09T22:38:57.744Z,85.40
2018-06-09T22:41:35.446Z,86.80
2018-06-09T22:44:08.559Z,87.50
2018-06-09T22:46:42.035Z,87.00
2018-06-09T22:49:16.877Z,88.60
2018-06-09T22:51:47.413Z,89.20
2018-06-09T22:54:27.157Z,89.50
2018-06-09T22:56:58.711Z,89.80
2018-06-09T22:59:34.640Z,90.20
2018-06-09T23:02:05.423Z,90.80
2018-06-09T23:04:36.410Z,91.60
2018-06-09T23:07:11.766Z,92.90
2018-06-09T23:09:43.040Z,93.00
2018-06-09T23:12:13.250Z,93.70
2018-06-09T23:14:44.506Z,94.00
2018-06-09T23:17:16.631Z,94.20
2018-06-09T23:19:48.731Z,95.10
2018-06-09T23:22:20.828Z,95.30
2018-06-09T23:24:52.084Z,95.10
2018-06-09T23:27:23.455Z,95.80
2018-06-09T23:29:54.741Z,96.20
2018-06-09T23:32:26.445Z,96.10
2018-06-09T23:34:58.322Z,95.70
2018-06-09T23:37:29.716Z,96.60
2018-06-09T23:40:01.417Z,95.90
2018-06-09T23:42:33.990Z,95.50
2018-06-09T23:45:06.391Z,94.30
2018-06-09T23:47:38.623Z,94.60
2018-06-09T23:50:10.770Z,94.80
2018-06-09T23:52:47.571Z,94.60
2018-06-09T23:55:18.978Z,95.10
2018-06-09T23:57:52.368Z,95.40
